Time;durP1;ratioP1;P1;durP2;ratioP2;P2;SDS_P1;SDS_P2;PMS_P1;PMS_P2;Temp;Humidity;BMP_temperature;BMP_pressure;BME280_temperature;BME280_humidity;BME280_pressure;Samples;Min_cycle;Max_cycle;Signal;HPM_P1;HPM_P2
2023/08/02 00:01:57;;;;;;;;;;;16.20;99.90;;;;;;5061766;28;19920;-89
2023/08/02 00:04:26;;;;;;;;;;;16.20;99.90;;;;;;5047745;28;19913;-89
2023/08/02 00:06:53;;;;;;;;;;;16.20;99.90;;;;;;5063823;28;19991;-89
2023/08/02 00:09:21;;;;;;;;;;;16.20;99.90;;;;;;5046075;28;20363;-90
2023/08/02 00:11:49;;;;;;;;;;;16.20;99.90;;;;;;5065551;28;19912;-90
2023/08/02 00:14:14;;;;;;;;;;;16.10;99.90;;;;;;5076610;28;19919;-89
2023/08/02 00:16:44;;;;;;;;;;;16.10;99.90;;;;;;5061877;28;19920;-88
2023/08/02 00:19:10;;;;;;;;;;;16.00;99.90;;;;;;5066020;28;19909;-89
2023/08/02 00:21:36;;;;;;;;;;;16.00;99.90;;;;;;5047135;28;19917;-90
2023/08/02 00:24:01;;;;;;;;;;;16.00;99.90;;;;;;5061857;28;20345;-90
2023/08/02 00:26:33;;;;;;;;;;;15.90;99.90;;;;;;5063588;28;22166;-90
2023/08/02 00:28:59;;;;;;;;;;;15.90;99.90;;;;;;5059395;28;20316;-89
2023/08/02 00:31:24;;;;;;;;;;;15.90;99.90;;;;;;5059540;28;19956;-90
2023/08/02 00:33:50;;;;;;;;;;;15.80;99.90;;;;;;5063000;28;19921;-90
2023/08/02 00:36:15;;;;;;;;;;;15.80;99.90;;;;;;5064375;28;20008;-89
2023/08/02 00:38:41;;;;;;;;;;;15.80;99.90;;;;;;5057380;28;19909;-90
2023/08/02 00:41:07;;;;;;;;;;;15.80;99.90;;;;;;5061622;28;19924;-90
2023/08/02 00:43:38;;;;;;;;;;;15.80;99.90;;;;;;5061366;28;19921;-90
2023/08/02 00:46:05;;;;;;;;;;;15.70;99.90;;;;;;5065434;28;19927;-89
2023/08/02 00:48:32;;;;;;;;;;;15.70;99.90;;;;;;5061423;28;19913;-90
2023/08/02 00:50:57;;;;;;;;;;;15.70;99.90;;;;;;5063648;28;19912;-90
2023/08/02 00:53:23;;;;;;;;;;;15.60;99.90;;;;;;5064845;28;19935;-89
2023/08/02 00:55:49;;;;;;;;;;;15.60;99.90;;;;;;5064090;28;19923;-89
2023/08/02 00:58:14;;;;;;;;;;;15.60;99.90;;;;;;5062553;28;19909;-89
2023/08/02 01:00:40;;;;;;;;;;;15.60;99.90;;;;;;5062310;28;19950;-90
2023/08/02 01:03:07;;;;;;;;;;;15.60;99.90;;;;;;5061734;28;19921;-88
2023/08/02 01:05:37;;;;;;;;;;;15.60;99.90;;;;;;5047059;28;19920;-89
2023/08/02 01:08:04;;;;;;;;;;;15.70;99.90;;;;;;5044610;28;19920;-90
2023/08/02 01:10:52;;;;;;;;;;;15.70;99.90;;;;;;5062732;28;19908;-89
2023/08/02 01:13:18;;;;;;;;;;;15.80;99.90;;;;;;5063260;28;19908;-89
2023/08/02 01:15:48;;;;;;;;;;;15.70;99.90;;;;;;5081316;28;19971;-88
2023/08/02 01:18:13;;;;;;;;;;;15.80;99.90;;;;;;5063218;28;19917;-88
2023/08/02 01:20:39;;;;;;;;;;;15.80;99.90;;;;;;5058441;28;20019;-88
2023/08/02 01:23:04;;;;;;;;;;;15.70;99.90;;;;;;5068456;28;20402;-88
2023/08/02 01:25:31;;;;;;;;;;;15.70;99.90;;;;;;5073841;28;20028;-89
2023/08/02 01:27:59;;;;;;;;;;;15.70;99.90;;;;;;5080618;28;19916;-88
2023/08/02 01:30:28;;;;;;;;;;;15.60;99.90;;;;;;5077620;28;19996;-88
2023/08/02 01:32:54;;;;;;;;;;;15.60;99.90;;;;;;5057513;28;19931;-88
2023/08/02 01:35:19;;;;;;;;;;;15.50;99.90;;;;;;5056008;28;19924;-88
2023/08/02 01:37:46;;;;;;;;;;;15.50;99.90;;;;;;5056877;28;19955;-87
2023/08/02 01:40:13;;;;;;;;;;;15.50;99.90;;;;;;5059712;28;19932;-88
2023/08/02 01:42:39;;;;;;;;;;;15.50;99.90;;;;;;5055117;28;19916;-88
2023/08/02 01:45:05;;;;;;;;;;;15.50;99.90;;;;;;5057780;28;19908;-88
2023/08/02 01:47:32;;;;;;;;;;;15.40;99.90;;;;;;5056081;28;19952;-87
2023/08/02 01:49:59;;;;;;;;;;;15.50;99.90;;;;;;5058579;28;20287;-88
2023/08/02 01:52:24;;;;;;;;;;;15.40;99.90;;;;;;5058373;28;19960;-88
2023/08/02 01:54:51;;;;;;;;;;;15.40;99.90;;;;;;5053844;28;20011;-89
2023/08/02 01:57:16;;;;;;;;;;;15.40;99.90;;;;;;5053828;28;20577;-89
2023/08/02 01:59:43;;;;;;;;;;;15.40;99.90;;;;;;5056894;28;19920;-89
2023/08/02 02:02:08;;;;;;;;;;;15.40;99.90;;;;;;5057125;28;19908;-89
2023/08/02 02:04:33;;;;;;;;;;;15.50;99.90;;;;;;5055001;28;19917;-89
2023/08/02 02:07:00;;;;;;;;;;;15.60;99.90;;;;;;5058072;28;19916;-88
2023/08/02 02:09:26;;;;;;;;;;;15.60;99.90;;;;;;5061272;28;19917;-88
2023/08/02 02:11:52;;;;;;;;;;;15.60;99.90;;;;;;5058171;28;19915;-89
2023/08/02 02:14:17;;;;;;;;;;;15.60;99.90;;;;;;5058975;28;19932;-88
2023/08/02 02:16:43;;;;;;;;;;;15.60;99.90;;;;;;5059379;28;19940;-87
2023/08/02 02:19:08;;;;;;;;;;;15.60;99.90;;;;;;5056823;28;19916;-88
2023/08/02 02:21:34;;;;;;;;;;;15.60;99.90;;;;;;5046555;28;20043;-88
2023/08/02 02:24:01;;;;;;;;;;;15.60;99.90;;;;;;5058982;28;19952;-89
2023/08/02 02:26:26;;;;;;;;;;;15.60;99.90;;;;;;5060431;28;19916;-87
2023/08/02 02:28:54;;;;;;;;;;;15.60;99.90;;;;;;5064616;28;20001;-89
2023/08/02 02:31:20;;;;;;;;;;;15.60;99.90;;;;;;5079925;28;19916;-88
2023/08/02 02:33:45;;;;;;;;;;;15.60;99.90;;;;;;5064579;28;19912;-88
2023/08/02 02:36:11;;;;;;;;;;;15.60;99.90;;;;;;5068367;28;19925;-89
2023/08/02 02:38:36;;;;;;;;;;;15.50;99.90;;;;;;5064340;28;19912;-89
2023/08/02 02:41:02;;;;;;;;;;;15.60;99.90;;;;;;5067472;28;19909;-89
2023/08/02 02:43:28;;;;;;;;;;;15.50;99.90;;;;;;5069484;28;20274;-87
2023/08/02 02:45:53;;;;;;;;;;;15.50;99.90;;;;;;5052953;28;19932;-88
2023/08/02 02:48:20;;;;;;;;;;;15.50;99.90;;;;;;5065601;28;19908;-91
2023/08/02 02:50:45;;;;;;;;;;;15.50;99.90;;;;;;5059767;28;19999;-89
2023/08/02 02:53:12;;;;;;;;;;;15.50;99.90;;;;;;5065718;28;20054;-88
2023/08/02 02:55:38;;;;;;;;;;;15.50;99.90;;;;;;5065558;28;19924;-88
2023/08/02 02:58:05;;;;;;;;;;;15.60;99.90;;;;;;5062971;28;20332;-88
2023/08/02 03:00:32;;;;;;;;;;;15.60;99.90;;;;;;5066386;28;20634;-89
2023/08/02 03:02:57;;;;;;;;;;;15.50;99.90;;;;;;5064516;28;19908;-88
2023/08/02 03:05:23;;;;;;;;;;;15.60;99.90;;;;;;5062930;28;19919;-88
2023/08/02 03:07:49;;;;;;;;;;;15.60;99.90;;;;;;5048453;28;19916;-88
2023/08/02 03:10:16;;;;;;;;;;;15.60;99.90;;;;;;5063556;28;20390;-90
2023/08/02 03:12:42;;;;;;;;;;;15.60;99.90;;;;;;5047506;28;19947;-88
2023/08/02 03:15:07;;;;;;;;;;;15.60;99.90;;;;;;5061250;28;19952;-90
2023/08/02 03:17:33;;;;;;;;;;;15.60;99.90;;;;;;5065116;28;20545;-88
2023/08/02 03:20:00;;;;;;;;;;;15.70;99.90;;;;;;5062433;28;19917;-90
2023/08/02 03:22:25;;;;;;;;;;;15.60;99.90;;;;;;5063630;28;20413;-90
2023/08/02 03:24:51;;;;;;;;;;;15.70;99.90;;;;;;5049858;28;19925;-90
2023/08/02 03:27:18;;;;;;;;;;;15.70;99.90;;;;;;5069323;28;19916;-91
2023/08/02 03:29:43;;;;;;;;;;;15.70;99.90;;;;;;5070548;28;20004;-90
2023/08/02 03:32:10;;;;;;;;;;;15.70;99.90;;;;;;5070612;28;20392;-90
2023/08/02 03:34:36;;;;;;;;;;;15.70;99.90;;;;;;5071473;28;20352;-90
2023/08/02 03:37:01;;;;;;;;;;;15.70;99.90;;;;;;5074750;28;19935;-91
2023/08/02 03:39:27;;;;;;;;;;;15.70;99.90;;;;;;5076490;28;19956;-91
2023/08/02 03:41:58;;;;;;;;;;;15.70;99.90;;;;;;5085532;28;20060;-90
2023/08/02 03:44:23;;;;;;;;;;;15.70;99.90;;;;;;5083909;28;19920;-90
2023/08/02 03:46:50;;;;;;;;;;;15.70;99.90;;;;;;5076790;28;19920;-90
2023/08/02 03:49:16;;;;;;;;;;;15.80;99.90;;;;;;5051395;28;20011;-90
2023/08/02 03:51:41;;;;;;;;;;;15.80;99.90;;;;;;5063496;28;19999;-90
2023/08/02 03:54:09;;;;;;;;;;;15.90;99.90;;;;;;5061393;28;19916;-91
2023/08/02 03:56:35;;;;;;;;;;;15.90;99.90;;;;;;5061926;28;20261;-92
2023/08/02 03:59:00;;;;;;;;;;;15.90;99.90;;;;;;5060219;28;19962;-92
2023/08/02 04:01:26;;;;;;;;;;;15.90;99.90;;;;;;5062199;28;20006;-91
2023/08/02 04:03:51;;;;;;;;;;;15.90;99.90;;;;;;5062703;28;19948;-92
2023/08/02 04:06:17;;;;;;;;;;;15.90;99.90;;;;;;5064809;28;19924;-92
2023/08/02 04:08:43;;;;;;;;;;;15.90;99.90;;;;;;5067245;28;19909;-91
2023/08/02 04:11:08;;;;;;;;;;;15.90;99.90;;;;;;5067432;28;19909;-90
2023/08/02 04:13:34;;;;;;;;;;;15.90;99.90;;;;;;5050459;28;19938;-91
2023/08/02 04:16:00;;;;;;;;;;;15.90;99.90;;;;;;5066079;28;19916;-88
2023/08/02 04:18:26;;;;;;;;;;;16.00;99.90;;;;;;5064846;28;19970;-91
2023/08/02 04:20:51;;;;;;;;;;;16.00;99.90;;;;;;5065788;28;20422;-91
2023/08/02 04:23:17;;;;;;;;;;;16.00;99.90;;;;;;5065453;28;19909;-91
2023/08/02 04:25:43;;;;;;;;;;;16.00;99.90;;;;;;5064628;28;19908;-89
2023/08/02 04:28:11;;;;;;;;;;;16.10;99.90;;;;;;5064609;28;20070;-91
2023/08/02 04:30:37;;;;;;;;;;;16.10;99.90;;;;;;5063373;28;20086;-89
2023/08/02 04:33:02;;;;;;;;;;;16.10;99.90;;;;;;5047396;28;20301;-88
2023/08/02 04:35:35;;;;;;;;;;;16.10;99.90;;;;;;5062543;28;20272;-90
2023/08/02 04:38:01;;;;;;;;;;;16.10;99.90;;;;;;5063809;28;19928;-89
2023/08/02 04:40:26;;;;;;;;;;;16.10;99.90;;;;;;5064123;28;19977;-89
2023/08/02 04:42:53;;;;;;;;;;;16.20;99.90;;;;;;5058737;28;20368;-88
2023/08/02 04:45:19;;;;;;;;;;;16.20;99.90;;;;;;5060583;28;19917;-88
2023/08/02 04:47:48;;;;;;;;;;;16.20;99.90;;;;;;5060212;28;20249;-91
2023/08/02 04:50:16;;;;;;;;;;;16.20;99.90;;;;;;5061122;28;19985;-91
2023/08/02 04:52:46;;;;;;;;;;;16.20;99.90;;;;;;5061293;28;19912;-89
2023/08/02 04:55:11;;;;;;;;;;;16.30;99.90;;;;;;5058621;28;19916;-90
2023/08/02 04:57:40;;;;;;;;;;;16.30;99.90;;;;;;5038959;28;19935;-89
2023/08/02 05:00:12;;;;;;;;;;;16.30;99.90;;;;;;5059089;28;19925;-90
2023/08/02 05:02:43;;;;;;;;;;;16.30;99.90;;;;;;5060011;28;19995;-91
2023/08/02 05:05:26;;;;;;;;;;;16.30;99.90;;;;;;5059682;28;19916;-90
2023/08/02 05:07:58;;;;;;;;;;;16.30;99.90;;;;;;5061714;28;19924;-91
2023/08/02 05:10:26;;;;;;;;;;;16.40;99.90;;;;;;5056428;28;20149;-88
2023/08/02 05:12:57;;;;;;;;;;;16.30;99.90;;;;;;5057268;28;19913;-89
2023/08/02 05:15:29;;;;;;;;;;;16.40;99.90;;;;;;5056426;28;19956;-90
2023/08/02 05:18:00;;;;;;;;;;;16.40;99.90;;;;;;5060968;28;20017;-90
2023/08/02 05:20:33;;;;;;;;;;;16.30;99.90;;;;;;5045427;28;20331;-90
2023/08/02 05:23:04;;;;;;;;;;;16.30;99.90;;;;;;5047930;28;20047;-90
2023/08/02 05:25:30;;;;;;;;;;;16.40;99.90;;;;;;5055237;28;19920;-89
2023/08/02 05:27:59;;;;;;;;;;;16.40;99.90;;;;;;5049094;28;20035;-89
2023/08/02 05:30:31;;;;;;;;;;;16.40;99.90;;;;;;5057146;28;19920;-91
2023/08/02 05:33:06;;;;;;;;;;;16.40;99.90;;;;;;5060189;28;19927;-90
2023/08/02 05:35:32;;;;;;;;;;;16.30;99.90;;;;;;5061992;28;20035;-89
2023/08/02 05:38:10;;;;;;;;;;;16.40;99.90;;;;;;5062569;28;19916;-90
2023/08/02 05:41:22;;;;;;;;;;;16.40;99.90;;;;;;5060404;28;20146;-90
2023/08/02 05:44:15;;;;;;;;;;;16.40;99.90;;;;;;5031895;28;20269;-91
2023/08/02 05:46:43;;;;;;;;;;;16.40;99.90;;;;;;5062807;28;19909;-90
2023/08/02 05:49:09;;;;;;;;;;;16.50;99.90;;;;;;5064667;28;19921;-92
2023/08/02 05:51:56;;;;;;;;;;;16.40;99.90;;;;;;5064371;28;19945;-92
2023/08/02 05:54:28;;;;;;;;;;;16.40;99.90;;;;;;5049864;28;19917;-90
2023/08/02 05:56:57;;;;;;;;;;;16.40;99.90;;;;;;5084076;28;19925;-88
2023/08/02 05:59:39;;;;;;;;;;;16.40;99.90;;;;;;5061522;28;19917;-88
2023/08/02 06:02:28;;;;;;;;;;;16.30;99.90;;;;;;5053563;28;19964;-89
2023/08/02 06:04:54;;;;;;;;;;;16.10;99.90;;;;;;5056468;28;19982;-90
2023/08/02 06:07:21;;;;;;;;;;;16.00;99.90;;;;;;5056948;28;20268;-89
2023/08/02 06:10:07;;;;;;;;;;;16.00;99.90;;;;;;5056712;28;19928;-86
2023/08/02 06:12:58;;;;;;;;;;;15.90;99.90;;;;;;5053067;28;20621;-88
2023/08/02 06:15:40;;;;;;;;;;;15.90;99.90;;;;;;5053521;28;19917;-88
2023/08/02 06:18:11;;;;;;;;;;;15.80;99.90;;;;;;5055481;28;19935;-87
2023/08/02 06:20:44;;;;;;;;;;;15.80;99.90;;;;;;5055107;28;19919;-85
2023/08/02 06:23:20;;;;;;;;;;;15.70;99.90;;;;;;5053046;28;20016;-85
2023/08/02 06:25:49;;;;;;;;;;;15.70;99.90;;;;;;5057123;28;20490;-82
2023/08/02 06:28:21;;;;;;;;;;;15.60;99.90;;;;;;5055565;28;19917;-84
2023/08/02 06:30:46;;;;;;;;;;;15.50;99.90;;;;;;5052058;28;20171;-83
2023/08/02 06:33:15;;;;;;;;;;;15.50;99.90;;;;;;5057557;28;19962;-84
2023/08/02 06:35:40;;;;;;;;;;;15.50;99.90;;;;;;5053920;28;20011;-85
2023/08/02 06:38:14;;;;;;;;;;;15.60;99.90;;;;;;5055566;28;20011;-86
2023/08/02 06:40:43;;;;;;;;;;;15.60;99.90;;;;;;5049599;28;19921;-85
2023/08/02 06:43:11;;;;;;;;;;;15.60;99.90;;;;;;5038186;28;19967;-86
2023/08/02 06:46:01;;;;;;;;;;;15.60;99.90;;;;;;5053067;28;20668;-86
2023/08/02 06:48:32;;;;;;;;;;;15.60;99.90;;;;;;5052961;28;19917;-85
2023/08/02 06:50:58;;;;;;;;;;;15.60;99.90;;;;;;5042053;28;22241;-86
2023/08/02 06:53:24;;;;;;;;;;;15.60;99.90;;;;;;5052687;28;20356;-86
2023/08/02 06:55:50;;;;;;;;;;;15.60;99.90;;;;;;5052939;28;19919;-86
2023/08/02 06:58:18;;;;;;;;;;;15.60;99.90;;;;;;5055433;28;19924;-85
2023/08/02 07:00:48;;;;;;;;;;;15.60;99.90;;;;;;5056641;28;19920;-86
2023/08/02 07:03:13;;;;;;;;;;;15.60;99.90;;;;;;5059863;28;20001;-88
2023/08/02 07:05:41;;;;;;;;;;;15.60;99.90;;;;;;5052534;28;20348;-87
2023/08/02 07:08:07;;;;;;;;;;;15.60;99.90;;;;;;5054754;28;20317;-86
2023/08/02 07:10:33;;;;;;;;;;;15.60;99.90;;;;;;5052641;28;19978;-87
2023/08/02 07:13:01;;;;;;;;;;;15.60;99.90;;;;;;5058534;28;20310;-86
2023/08/02 07:15:27;;;;;;;;;;;15.70;99.90;;;;;;5059222;28;19978;-86
2023/08/02 07:17:53;;;;;;;;;;;15.70;99.90;;;;;;5042948;28;19924;-86
2023/08/02 07:20:18;;;;;;;;;;;15.70;99.90;;;;;;5057141;28;19921;-86
2023/08/02 07:22:47;;;;;;;;;;;15.70;99.90;;;;;;5049890;28;20007;-86
2023/08/02 07:25:21;;;;;;;;;;;15.60;99.90;;;;;;5061945;28;19920;-86
2023/08/02 07:27:55;;;;;;;;;;;15.60;99.90;;;;;;5057406;28;20268;-86
2023/08/02 07:30:21;;;;;;;;;;;15.70;99.90;;;;;;5058750;28;19917;-86
2023/08/02 07:32:46;;;;;;;;;;;15.70;99.90;;;;;;5057407;28;19921;-86
2023/08/02 07:35:21;;;;;;;;;;;15.70;99.90;;;;;;5055915;28;19928;-86
2023/08/02 07:37:46;;;;;;;;;;;15.80;99.90;;;;;;5041174;28;20574;-87
2023/08/02 07:40:15;;;;;;;;;;;15.90;99.90;;;;;;5057637;28;20352;-87
2023/08/02 07:42:41;;;;;;;;;;;15.90;99.90;;;;;;5052035;28;19958;-85
2023/08/02 07:45:07;;;;;;;;;;;15.90;99.90;;;;;;5060263;28;19946;-85
2023/08/02 07:47:38;;;;;;;;;;;15.90;99.90;;;;;;5057320;28;19923;-85
2023/08/02 07:50:07;;;;;;;;;;;15.90;99.90;;;;;;5055279;28;19927;-85
2023/08/02 07:52:34;;;;;;;;;;;15.90;99.90;;;;;;5061323;28;19920;-84
2023/08/02 07:55:04;;;;;;;;;;;16.00;99.90;;;;;;5062143;28;19919;-85
2023/08/02 07:57:36;;;;;;;;;;;15.90;99.90;;;;;;5061912;28;19920;-85
2023/08/02 08:00:05;;;;;;;;;;;15.90;99.90;;;;;;5080649;28;19909;-85
2023/08/02 08:02:36;;;;;;;;;;;15.90;99.90;;;;;;5065062;28;19936;-85
2023/08/02 08:05:01;;;;;;;;;;;16.00;99.90;;;;;;5045171;28;19913;-85
2023/08/02 08:07:30;;;;;;;;;;;16.00;99.90;;;;;;5070310;28;19916;-85
2023/08/02 08:09:59;;;;;;;;;;;16.00;99.90;;;;;;5074498;28;19943;-84
2023/08/02 08:12:28;;;;;;;;;;;16.00;99.90;;;;;;5068100;28;20302;-85
2023/08/02 08:14:54;;;;;;;;;;;16.00;99.90;;;;;;5038510;28;20027;-85
2023/08/02 08:17:24;;;;;;;;;;;16.10;99.90;;;;;;5057546;28;20360;-85
2023/08/02 08:19:51;;;;;;;;;;;16.10;99.90;;;;;;5056656;28;19955;-84
2023/08/02 08:22:18;;;;;;;;;;;16.10;99.90;;;;;;5054463;28;19955;-86
2023/08/02 08:24:45;;;;;;;;;;;16.20;99.90;;;;;;5056663;28;19939;-86
2023/08/02 08:27:17;;;;;;;;;;;16.20;99.90;;;;;;5056791;28;19923;-86
2023/08/02 08:29:42;;;;;;;;;;;16.20;99.90;;;;;;5042009;28;19913;-85
2023/08/02 08:32:10;;;;;;;;;;;16.20;99.90;;;;;;5057897;28;20463;-85
2023/08/02 08:34:43;;;;;;;;;;;16.20;99.90;;;;;;5060117;28;19923;-85
2023/08/02 08:37:12;;;;;;;;;;;16.30;99.90;;;;;;5054086;28;19925;-86
2023/08/02 08:39:41;;;;;;;;;;;16.30;99.90;;;;;;5058535;28;19936;-86
2023/08/02 08:42:07;;;;;;;;;;;16.40;99.90;;;;;;5060677;28;20422;-86
2023/08/02 08:44:38;;;;;;;;;;;16.40;99.90;;;;;;5058950;28;20022;-85
2023/08/02 08:47:16;;;;;;;;;;;16.40;99.90;;;;;;5055700;28;19925;-86
2023/08/02 08:49:44;;;;;;;;;;;16.40;99.90;;;;;;5039047;28;19931;-85
2023/08/02 08:52:11;;;;;;;;;;;16.40;99.90;;;;;;5057669;28;19916;-84
2023/08/02 08:54:38;;;;;;;;;;;16.40;99.90;;;;;;5056801;28;19928;-85
2023/08/02 08:57:11;;;;;;;;;;;16.40;99.90;;;;;;5058251;28;19982;-86
2023/08/02 08:59:43;;;;;;;;;;;16.40;99.90;;;;;;5056758;28;19917;-86
2023/08/02 09:02:08;;;;;;;;;;;16.40;99.90;;;;;;5045236;28;20528;-85
2023/08/02 09:04:38;;;;;;;;;;;16.50;99.90;;;;;;5053041;28;19988;-86
2023/08/02 09:07:10;;;;;;;;;;;16.50;99.90;;;;;;5056134;28;19920;-93
2023/08/02 09:10:00;;;;;;;;;;;16.50;99.90;;;;;;5066515;28;19963;-89
2023/08/02 09:12:31;;;;;;;;;;;16.60;99.90;;;;;;5069189;28;19912;-89
2023/08/02 09:15:02;;;;;;;;;;;16.60;99.90;;;;;;5063305;28;19935;-89
2023/08/02 09:17:44;;;;;;;;;;;16.60;99.90;;;;;;5068551;28;19920;-89
2023/08/02 09:20:13;;;;;;;;;;;16.60;99.90;;;;;;5059032;28;19920;-88
2023/08/02 09:22:42;;;;;;;;;;;16.70;99.90;;;;;;5055296;28;20028;-89
2023/08/02 09:25:19;;;;;;;;;;;16.80;99.90;;;;;;5070302;28;20366;-88
2023/08/02 09:27:58;;;;;;;;;;;16.90;99.90;;;;;;5068964;28;19944;-89
2023/08/02 09:30:30;;;;;;;;;;;17.10;99.90;;;;;;5051388;28;19988;-88
2023/08/02 09:33:02;;;;;;;;;;;17.10;99.90;;;;;;5065395;28;20001;-89
2023/08/02 09:35:51;;;;;;;;;;;17.20;99.90;;;;;;5066368;28;20007;-88
2023/08/02 09:38:47;;;;;;;;;;;17.30;99.90;;;;;;5083374;28;20264;-89
2023/08/02 09:41:24;;;;;;;;;;;17.50;99.90;;;;;;5053540;28;20011;-88
2023/08/02 09:43:54;;;;;;;;;;;17.60;99.90;;;;;;5054515;28;19925;-88
2023/08/02 09:46:29;;;;;;;;;;;17.70;99.90;;;;;;5068375;28;20523;-88
2023/08/02 09:48:59;;;;;;;;;;;17.80;99.90;;;;;;5054853;28;20004;-88
2023/08/02 09:51:51;;;;;;;;;;;17.80;99.90;;;;;;5056691;28;20390;-88
2023/08/02 09:54:41;;;;;;;;;;;17.90;99.90;;;;;;5040575;28;19921;-89
2023/08/02 09:57:09;;;;;;;;;;;18.40;99.90;;;;;;5040479;28;20360;-89
2023/08/02 09:59:38;;;;;;;;;;;18.70;99.90;;;;;;5054677;28;19932;-89
2023/08/02 10:02:03;;;;;;;;;;;19.20;99.90;;;;;;5055574;28;20003;-88
2023/08/02 10:04:40;;;;;;;;;;;19.30;99.90;;;;;;5046074;28;20237;-88
2023/08/02 10:07:20;;;;;;;;;;;19.60;99.90;;;;;;5068340;28;19909;-88
2023/08/02 10:09:49;;;;;;;;;;;19.80;99.90;;;;;;5052889;28;19917;-88
2023/08/02 10:12:16;;;;;;;;;;;19.90;99.90;;;;;;5046420;28;19931;-89
2023/08/02 10:14:50;;;;;;;;;;;19.90;99.90;;;;;;5063324;28;19952;-88
2023/08/02 10:17:31;;;;;;;;;;;19.90;99.90;;;;;;5062619;28;20592;-89
2023/08/02 10:20:00;;;;;;;;;;;19.70;99.90;;;;;;5072933;28;19923;-88
2023/08/02 10:22:27;;;;;;;;;;;19.70;99.90;;;;;;5079726;28;19928;-88
2023/08/02 10:24:54;;;;;;;;;;;19.60;99.90;;;;;;5072413;28;19909;-89
2023/08/02 10:27:21;;;;;;;;;;;19.60;99.90;;;;;;5065598;28;19912;-88
2023/08/02 10:29:50;;;;;;;;;;;19.80;99.90;;;;;;5065362;28;20247;-90
2023/08/02 10:32:22;;;;;;;;;;;20.40;99.90;;;;;;5066379;28;19908;-88
2023/08/02 10:35:17;;;;;;;;;;;20.90;99.90;;;;;;5063116;28;19920;-89
2023/08/02 10:37:57;;;;;;;;;;;21.20;99.90;;;;;;5064974;28;19912;-89
2023/08/02 10:40:25;;;;;;;;;;;21.20;99.90;;;;;;5064229;28;19999;-89
2023/08/02 10:43:07;;;;;;;;;;;21.40;99.90;;;;;;5064758;28;19920;-89
2023/08/02 10:45:33;;;;;;;;;;;21.80;99.90;;;;;;5066134;28;19999;-88
2023/08/02 10:48:23;;;;;;;;;;;22.40;99.90;;;;;;5061188;28;19991;-88
2023/08/02 10:50:53;;;;;;;;;;;22.30;99.90;;;;;;5063982;28;19921;-90
2023/08/02 10:53:19;;;;;;;;;;;21.80;99.90;;;;;;5067759;28;19915;-89
2023/08/02 10:56:09;;;;;;;;;;;21.50;99.90;;;;;;5067616;28;19924;-89
2023/08/02 10:58:49;;;;;;;;;;;21.20;99.90;;;;;;5046879;28;19931;-89
2023/08/02 11:01:16;;;;;;;;;;;21.20;99.90;;;;;;5062693;28;20001;-89
2023/08/02 11:03:48;;;;;;;;;;;21.30;99.90;;;;;;5053061;28;19919;-89
2023/08/02 11:06:38;;;;;;;;;;;21.80;99.90;;;;;;5054572;28;20199;-88
2023/08/02 11:09:26;;;;;;;;;;;22.40;99.90;;;;;;5045423;28;19999;-90
2023/08/02 11:14:46;;;;;;;;;;;23.10;99.90;;;;;;5061015;28;19916;-89
2023/08/02 11:17:17;;;;;;;;;;;23.10;99.90;;;;;;5077045;28;19920;-90
2023/08/02 11:19:49;;;;;;;;;;;22.60;99.90;;;;;;5062220;28;19917;-90
2023/08/02 11:22:20;;;;;;;;;;;22.00;99.90;;;;;;5062502;28;19997;-88
2023/08/02 11:24:50;;;;;;;;;;;21.50;99.90;;;;;;5064590;28;19960;-90
2023/08/02 11:27:36;;;;;;;;;;;21.20;99.90;;;;;;5065772;28;20309;-89
2023/08/02 11:30:12;;;;;;;;;;;20.90;99.90;;;;;;5059179;28;20360;-90
2023/08/02 11:32:45;;;;;;;;;;;20.60;99.90;;;;;;5064894;28;20006;-90
2023/08/02 11:35:19;;;;;;;;;;;20.50;99.90;;;;;;5063377;28;19963;-89
2023/08/02 11:37:45;;;;;;;;;;;20.30;99.90;;;;;;5064102;28;19916;-88
2023/08/02 11:40:17;;;;;;;;;;;20.10;99.90;;;;;;5060680;28;19913;-87
2023/08/02 11:42:53;;;;;;;;;;;20.00;99.90;;;;;;5061503;28;19999;-88
2023/08/02 11:45:39;;;;;;;;;;;19.80;99.90;;;;;;5078422;28;19960;-87
2023/08/02 11:48:26;;;;;;;;;;;19.70;99.90;;;;;;5064589;28;22307;-87
2023/08/02 11:50:59;;;;;;;;;;;19.60;99.90;;;;;;5046536;28;20060;-87
2023/08/02 11:53:29;;;;;;;;;;;19.50;99.90;;;;;;5063021;28;19916;-87
2023/08/02 11:56:00;;;;;;;;;;;19.50;99.90;;;;;;5065697;28;19932;-87
2023/08/02 11:58:34;;;;;;;;;;;19.50;99.90;;;;;;5062869;28;20344;-88
2023/08/02 12:01:03;;;;;;;;;;;19.60;99.90;;;;;;5082068;28;19923;-88
2023/08/02 12:03:37;;;;;;;;;;;19.60;99.90;;;;;;5063180;28;19908;-89
2023/08/02 12:06:06;;;;;;;;;;;19.70;99.90;;;;;;5059122;28;19946;-88
2023/08/02 12:08:37;;;;;;;;;;;20.50;99.90;;;;;;5064909;28;20026;-87
2023/08/02 12:11:23;;;;;;;;;;;21.40;99.90;;;;;;5064832;28;19908;-88
2023/08/02 12:13:55;;;;;;;;;;;21.60;99.90;;;;;;5061328;28;19916;-88
2023/08/02 12:16:39;;;;;;;;;;;21.60;99.90;;;;;;5064265;28;20007;-88
2023/08/02 12:19:09;;;;;;;;;;;21.60;99.90;;;;;;5063821;28;20377;-89
2023/08/02 12:21:38;;;;;;;;;;;21.30;99.90;;;;;;5067017;28;20403;-87
2023/08/02 12:24:20;;;;;;;;;;;21.10;99.90;;;;;;5060252;28;20002;-88
2023/08/02 12:26:52;;;;;;;;;;;20.90;99.90;;;;;;5056760;28;20006;-88
2023/08/02 12:29:26;;;;;;;;;;;21.20;99.90;;;;;;5042750;28;20376;-88
2023/08/02 12:31:56;;;;;;;;;;;21.80;99.90;;;;;;5064809;28;19950;-88
2023/08/02 12:34:25;;;;;;;;;;;22.50;99.90;;;;;;5079207;28;19916;-88
2023/08/02 12:36:54;;;;;;;;;;;23.30;99.90;;;;;;5072355;28;19921;-89
2023/08/02 12:39:22;;;;;;;;;;;24.00;99.90;;;;;;5056550;28;20015;-90
2023/08/02 12:41:48;;;;;;;;;;;24.30;99.90;;;;;;5056171;28;19913;-89
2023/08/02 12:44:17;;;;;;;;;;;24.10;99.90;;;;;;5054069;28;20288;-88
2023/08/02 12:46:46;;;;;;;;;;;24.00;99.90;;;;;;5055723;28;19998;-89
2023/08/02 12:49:12;;;;;;;;;;;24.20;99.90;;;;;;5055290;28;19921;-88
2023/08/02 12:51:41;;;;;;;;;;;24.80;99.90;;;;;;5057469;28;19947;-89
2023/08/02 12:54:07;;;;;;;;;;;25.40;99.90;;;;;;5050860;28;19912;-89
2023/08/02 12:56:33;;;;;;;;;;;25.40;99.90;;;;;;5058445;28;19931;-89
2023/08/02 12:58:59;;;;;;;;;;;25.00;99.90;;;;;;5057402;28;19919;-90
2023/08/02 13:01:28;;;;;;;;;;;24.80;99.90;;;;;;5050857;28;19920;-89
2023/08/02 13:03:59;;;;;;;;;;;24.20;99.90;;;;;;5053057;28;19921;-86
2023/08/02 13:06:29;;;;;;;;;;;23.60;99.90;;;;;;5071086;28;19920;-88
2023/08/02 13:08:59;;;;;;;;;;;23.20;99.90;;;;;;5048434;28;19920;-88
2023/08/02 13:11:25;;;;;;;;;;;23.40;99.90;;;;;;5055613;28;19931;-88
2023/08/02 13:33:47;;;;;;;;;;;23.50;99.90;;;;;;4975800;28;20274;-89
2023/08/02 13:36:25;;;;;;;;;;;;;;;;;;;;;
2023/08/02 13:39:15;;;;;;;;;;;23.20;99.90;;;;;;4938037;28;19930;-90
2023/08/02 13:45:07;;;;;;;;;;;22.80;99.90;;;;;;4897952;28;19926;-87
2023/08/02 13:47:32;;;;;;;;;;;23.00;99.90;;;;;;4957194;28;20560;-87
2023/08/02 13:50:01;;;;;;;;;;;23.80;99.90;;;;;;5031146;28;19917;-87
2023/08/02 13:52:27;;;;;;;;;;;24.00;99.90;;;;;;5055378;28;19926;-88
2023/08/02 13:55:05;;;;;;;;;;;24.10;99.90;;;;;;5056305;28;19924;-87
2023/08/02 13:57:44;;;;;;;;;;;23.90;99.90;;;;;;5055906;28;19992;-88
2023/08/02 14:00:15;;;;;;;;;;;23.40;99.90;;;;;;5054813;28;19917;-89
2023/08/02 14:02:41;;;;;;;;;;;23.20;99.90;;;;;;5058868;28;19920;-89
2023/08/02 14:05:09;;;;;;;;;;;23.70;99.90;;;;;;5056641;28;19970;-88
2023/08/02 14:07:37;;;;;;;;;;;24.30;99.90;;;;;;5057315;28;19921;-88
2023/08/02 14:10:04;;;;;;;;;;;24.70;99.90;;;;;;5069504;28;20538;-89
2023/08/02 14:12:31;;;;;;;;;;;24.80;99.90;;;;;;5050372;28;19908;-88
2023/08/02 14:15:01;;;;;;;;;;;24.60;99.90;;;;;;5058061;28;19944;-90
2023/08/02 14:17:33;;;;;;;;;;;24.70;99.90;;;;;;5066797;28;20347;-88
2023/08/02 14:19:58;;;;;;;;;;;24.60;99.90;;;;;;5037439;28;20019;-90
2023/08/02 14:22:24;;;;;;;;;;;24.40;99.90;;;;;;5043427;28;20098;-88
2023/08/02 14:24:50;;;;;;;;;;;24.10;99.90;;;;;;5056684;28;20347;-87
2023/08/02 14:27:15;;;;;;;;;;;23.90;99.90;;;;;;5058007;28;20390;-88
2023/08/02 14:29:52;;;;;;;;;;;24.10;99.90;;;;;;5064138;28;19923;-87
2023/08/02 14:32:25;;;;;;;;;;;24.40;99.90;;;;;;5060746;28;20000;-89
2023/08/02 14:34:50;;;;;;;;;;;24.20;99.90;;;;;;5062798;28;19916;-89
2023/08/02 14:37:18;;;;;;;;;;;24.00;99.90;;;;;;5066146;28;19983;-87
2023/08/02 14:39:44;;;;;;;;;;;23.80;99.90;;;;;;5062963;28;19912;-90
2023/08/02 14:42:14;;;;;;;;;;;23.90;99.90;;;;;;5070327;28;19954;-89
2023/08/02 14:44:40;;;;;;;;;;;24.60;99.90;;;;;;5075259;28;19924;-87
2023/08/02 14:47:09;;;;;;;;;;;24.90;99.90;;;;;;5074028;28;19928;-88
2023/08/02 14:49:37;;;;;;;;;;;24.70;99.90;;;;;;5058423;28;19923;-88
2023/08/02 14:52:03;;;;;;;;;;;24.40;99.90;;;;;;5058677;28;19969;-88
2023/08/02 14:54:34;;;;;;;;;;;24.10;99.90;;;;;;5043403;28;19920;-88
2023/08/02 14:57:13;;;;;;;;;;;24.30;99.90;;;;;;5052237;28;19921;-87
2023/08/02 14:59:41;;;;;;;;;;;24.20;99.90;;;;;;5057659;28;20015;-89
2023/08/02 15:02:10;;;;;;;;;;;24.40;99.90;;;;;;5055832;28;19920;-89